createdAt,value
2022-11-26T00:00:57.149Z,109.47
2022-11-26T00:03:25.198Z,111.03
2022-11-26T00:05:57.934Z,113.17
2022-11-26T00:08:31.437Z,112.40
2022-11-26T00:11:01.036Z,113.80
2022-11-26T00:13:31.360Z,118.23
2022-11-26T00:15:59.276Z,115.63
2022-11-26T00:18:27.437Z,114.50
2022-11-26T00:20:57.995Z,117.40
2022-11-26T00:23:28.514Z,114.33
2022-11-26T00:25:58.809Z,111.47
2022-11-26T00:28:32.975Z,113.03
2022-11-26T00:31:03.306Z,109.63
2022-11-26T00:33:32.816Z,109.57
2022-11-26T00:36:04.757Z,111.57
2022-11-26T00:38:32.960Z,114.47
2022-11-26T00:41:00.885Z,112.50
2022-11-26T00:43:28.837Z,114.50
2022-11-26T00:45:58.257Z,118.57
2022-11-26T00:48:26.231Z,118.27
2022-11-26T00:50:54.266Z,119.20
2022-11-26T00:53:25.429Z,121.27
2022-11-26T00:55:53.366Z,123.20
2022-11-26T00:58:24.943Z,125.03
2022-11-26T01:00:53.801Z,123.47
2022-11-26T01:03:23.166Z,123.20
2022-11-26T01:05:52.583Z,124.20
2022-11-26T01:08:28.741Z,121.60
2022-11-26T01:10:56.738Z,124.90
2022-11-26T01:13:24.772Z,121.57
2022-11-26T01:15:52.832Z,117.03
2022-11-26T01:18:23.578Z,117.80
2022-11-26T01:20:52.093Z,116.33
2022-11-26T01:23:21.050Z,112.97
2022-11-26T01:25:49.250Z,112.53
2022-11-26T01:28:19.621Z,106.93
2022-11-26T01:30:48.151Z,106.53
2022-11-26T01:33:16.103Z,110.00
2022-11-26T01:35:45.383Z,109.93
2022-11-26T01:38:15.733Z,108.27
2022-11-26T01:41:03.546Z,106.70
2022-11-26T01:43:37.509Z,104.60
2022-11-26T01:46:14.679Z,108.53
2022-11-26T01:48:43.054Z,110.60
2022-11-26T01:51:13.161Z,113.27
2022-11-26T01:53:49.164Z,118.73
2022-11-26T01:56:34.296Z,120.23
2022-11-26T01:59:09.426Z,119.83
2022-11-26T02:01:37.910Z,119.77
2022-11-26T02:04:14.320Z,119.33
2022-11-26T02:06:46.209Z,120.60
2022-11-26T02:09:15.298Z,120.07
2022-11-26T02:11:43.375Z,120.50
2022-11-26T02:14:15.682Z,109.77
2022-11-26T02:17:10.780Z,113.83
2022-11-26T02:19:53.753Z,117.80
2022-11-26T02:22:43.344Z,118.17
2022-11-26T02:25:18.648Z,110.70
2022-11-26T02:28:07.318Z,106.37
2022-11-26T02:30:39.056Z,112.20
2022-11-26T02:33:12.726Z,108.17
2022-11-26T02:35:43.728Z,115.93
2022-11-26T02:38:14.820Z,114.13
2022-11-26T02:40:42.870Z,108.60
2022-11-26T02:43:10.993Z,110.47
2022-11-26T02:45:43.619Z,109.07
2022-11-26T02:48:15.757Z,111.37
2022-11-26T02:50:48.445Z,107.80
2022-11-26T02:53:21.847Z,103.10
2022-11-26T02:55:54.905Z,103.90
2022-11-26T02:58:22.817Z,105.00
2022-11-26T03:00:52.697Z,102.50
2022-11-26T03:03:26.152Z,98.37
2022-11-26T03:05:57.364Z,103.97
2022-11-26T03:08:26.805Z,103.47
2022-11-26T03:10:54.821Z,102.23
2022-11-26T03:13:22.920Z,103.13
2022-11-26T03:15:52.213Z,103.47
2022-11-26T03:18:20.260Z,104.30
2022-11-26T03:20:52.154Z,103.80
2022-11-26T03:23:20.429Z,105.03
2022-11-26T03:25:48.518Z,101.37
2022-11-26T03:28:17.490Z,102.57
2022-11-26T03:30:45.400Z,104.27
2022-11-26T03:33:14.669Z,105.47
2022-11-26T03:35:42.608Z,105.93
2022-11-26T03:38:10.745Z,108.13
2022-11-26T03:40:38.673Z,109.33
2022-11-26T03:43:06.619Z,102.27
2022-11-26T03:45:34.564Z,106.33
2022-11-26T03:48:02.512Z,102.47
2022-11-26T03:50:31.786Z,101.97
2022-11-26T03:52:59.733Z,101.23
2022-11-26T03:55:27.781Z,99.60
2022-11-26T03:57:55.682Z,100.03
2022-11-26T04:00:23.766Z,99.40
2022-11-26T04:02:52.757Z,102.67
2022-11-26T04:05:20.800Z,101.43
2022-11-26T04:07:50.174Z,100.87
2022-11-26T04:10:18.449Z,98.97
2022-11-26T04:12:46.352Z,99.50
2022-11-26T04:15:14.296Z,98.03
2022-11-26T04:17:42.185Z,98.00
2022-11-26T04:20:10.809Z,95.87
2022-11-26T04:22:38.822Z,97.63
2022-11-26T04:25:08.886Z,90.30
2022-11-26T04:27:36.790Z,91.73
2022-11-26T04:30:05.446Z,94.10
2022-11-26T04:32:33.369Z,93.17
2022-11-26T04:35:01.391Z,92.97
2022-11-26T04:37:29.277Z,93.13
2022-11-26T04:39:57.198Z,93.97
2022-11-26T04:42:26.612Z,94.43
2022-11-26T04:44:54.539Z,94.37
2022-11-26T04:47:22.444Z,95.20
2022-11-26T04:49:50.342Z,94.00
2022-11-26T04:52:18.379Z,94.47
2022-11-26T04:54:49.636Z,92.23
2022-11-26T04:57:17.957Z,94.40
2022-11-26T04:59:47.237Z,95.27
2022-11-26T05:02:15.246Z,91.33
2022-11-26T05:04:43.306Z,91.93
2022-11-26T05:07:11.316Z,91.03
2022-11-26T05:09:39.367Z,91.27
2022-11-26T05:12:07.604Z,94.50
2022-11-26T05:14:35.962Z,92.67
2022-11-26T05:17:05.483Z,93.17
2022-11-26T05:19:34.237Z,94.63
2022-11-26T05:22:02.199Z,95.93
2022-11-26T05:24:30.142Z,100.07
2022-11-26T05:26:58.082Z,96.53
2022-11-26T05:29:26.723Z,98.00
2022-11-26T05:31:54.761Z,97.27
2022-11-26T05:34:24.069Z,98.93
2022-11-26T05:36:51.922Z,101.33
2022-11-26T05:39:19.842Z,102.33
2022-11-26T05:41:47.764Z,102.13
2022-11-26T05:44:15.934Z,102.17
2022-11-26T05:46:44.552Z,102.70
2022-11-26T05:49:12.436Z,104.93
2022-11-26T05:51:41.703Z,103.83
2022-11-26T05:54:14.205Z,103.30
2022-11-26T05:56:43.274Z,105.80
2022-11-26T05:59:11.661Z,106.03
2022-11-26T06:01:39.746Z,106.17
2022-11-26T06:04:07.740Z,106.60
2022-11-26T06:06:35.773Z,108.93
2022-11-26T06:09:05.479Z,106.30
2022-11-26T06:11:33.364Z,107.40
2022-11-26T06:14:01.268Z,107.73
2022-11-26T06:16:29.317Z,110.87
2022-11-26T06:18:57.743Z,107.40
2022-11-26T06:21:25.839Z,107.60
2022-11-26T06:23:59.096Z,105.80
2022-11-26T06:26:29.064Z,104.23
2022-11-26T06:28:57.138Z,105.73
2022-11-26T06:31:25.260Z,104.13
2022-11-26T06:33:55.273Z,103.70
2022-11-26T06:36:23.198Z,105.50
2022-11-26T06:38:51.292Z,104.80
2022-11-26T06:41:19.365Z,102.90
2022-11-26T06:43:48.690Z,102.63
2022-11-26T06:46:16.709Z,107.17
2022-11-26T06:48:44.734Z,104.13
2022-11-26T06:51:14.876Z,104.07
2022-11-26T06:53:43.284Z,105.80
2022-11-26T06:56:19.523Z,105.20
2022-11-26T06:58:49.793Z,103.03
2022-11-26T07:01:20.259Z,104.07
2022-11-26T07:03:48.672Z,107.70
2022-11-26T07:06:18.308Z,103.10
2022-11-26T07:08:46.728Z,101.47
2022-11-26T07:11:15.214Z,98.43
2022-11-26T07:13:43.188Z,96.27
2022-11-26T07:16:13.418Z,95.73
2022-11-26T07:18:41.584Z,98.47
2022-11-26T07:21:11.386Z,97.93
2022-11-26T07:23:39.924Z,94.70
2022-11-26T07:26:09.399Z,96.40
2022-11-26T07:28:37.988Z,92.77
2022-11-26T07:31:12.941Z,91.63
2022-11-26T07:33:45.710Z,89.27
2022-11-26T07:36:16.664Z,91.43
2022-11-26T07:38:44.760Z,90.40
2022-11-26T07:41:15.234Z,94.27
2022-11-26T07:43:44.386Z,93.17
2022-11-26T07:46:15.402Z,92.03
2022-11-26T07:48:43.520Z,92.23
2022-11-26T07:51:18.473Z,87.23
2022-11-26T07:53:46.513Z,89.57
2022-11-26T07:56:14.642Z,90.43
2022-11-26T07:58:43.099Z,88.07
2022-11-26T08:01:13.220Z,88.87
2022-11-26T08:03:42.158Z,86.70
2022-11-26T08:06:11.862Z,88.40
2022-11-26T08:08:41.904Z,87.20
2022-11-26T08:11:13.982Z,84.13
2022-11-26T08:13:41.970Z,85.83
2022-11-26T08:16:10.430Z,84.77
2022-11-26T08:18:38.427Z,83.73
2022-11-26T08:21:06.754Z,82.80
2022-11-26T08:23:35.266Z,83.87
2022-11-26T08:28:56.539Z,85.23
2022-11-26T08:31:25.029Z,83.27
2022-11-26T08:33:53.140Z,83.87
2022-11-26T08:36:21.131Z,83.03
2022-11-26T08:38:49.135Z,84.17
2022-11-26T08:41:18.471Z,81.20
2022-11-26T08:46:34.442Z,83.27
2022-11-26T08:49:02.658Z,79.40
2022-11-26T08:51:30.633Z,79.60
2022-11-26T08:53:58.595Z,78.70
2022-11-26T08:56:27.875Z,75.43
2022-11-26T08:58:55.822Z,75.27
2022-11-26T09:01:25.565Z,78.20
2022-11-26T09:03:55.237Z,80.37
2022-11-26T09:06:24.752Z,77.87
2022-11-26T09:09:10.497Z,79.17
2022-11-26T09:11:41.869Z,79.87
2022-11-26T09:14:10.997Z,78.70
2022-11-26T09:16:39.130Z,76.57
2022-11-26T09:19:08.651Z,77.10
2022-11-26T09:21:37.432Z,77.93
2022-11-26T09:24:05.959Z,76.27
2022-11-26T09:26:34.549Z,77.40
2022-11-26T09:29:04.572Z,76.43
2022-11-26T09:31:32.888Z,76.37
2022-11-26T09:34:02.219Z,77.53
2022-11-26T09:36:30.551Z,76.93
2022-11-26T09:39:00.485Z,77.00
2022-11-26T09:41:39.337Z,74.07
2022-11-26T09:44:27.422Z,77.40
2022-11-26T09:47:13.617Z,75.53
2022-11-26T09:49:51.691Z,78.00
2022-11-26T09:52:23.303Z,74.33
2022-11-26T09:54:56.225Z,75.57
2022-11-26T09:57:31.157Z,74.70
2022-11-26T10:00:00.533Z,76.23
2022-11-26T10:02:28.465Z,74.73
2022-11-26T10:04:56.416Z,72.97
2022-11-26T10:07:40.910Z,71.23
2022-11-26T10:10:17.863Z,68.30
2022-11-26T10:13:26.865Z,70.43
2022-11-26T10:15:59.636Z,67.23
2022-11-26T10:18:38.625Z,65.20
2022-11-26T10:21:32.586Z,63.80
2022-11-26T10:24:18.379Z,63.07
2022-11-26T10:26:46.597Z,62.57
2022-11-26T10:29:22.808Z,61.87
2022-11-26T10:31:56.307Z,59.40
2022-11-26T10:34:31.337Z,61.50
2022-11-26T10:37:01.367Z,62.00
2022-11-26T10:39:29.256Z,61.37
2022-11-26T10:41:57.811Z,60.37
2022-11-26T10:44:40.246Z,59.17
2022-11-26T10:47:31.343Z,58.60
2022-11-26T10:50:46.018Z,59.03
2022-11-26T10:53:07.309Z,62.43
2022-11-26T10:55:39.323Z,64.20
2022-11-26T10:58:15.876Z,62.63
2022-11-26T11:00:47.089Z,60.90
2022-11-26T11:03:38.149Z,59.20
2022-11-26T11:06:27.942Z,62.00
2022-11-26T11:08:56.186Z,65.37
2022-11-26T11:11:26.955Z,61.43
2022-11-26T11:13:55.618Z,62.07
2022-11-26T11:16:28.469Z,63.63
2022-11-26T11:19:00.196Z,61.13
2022-11-26T11:21:34.482Z,57.77
2022-11-26T11:24:17.566Z,59.77
2022-11-26T11:26:47.358Z,59.37
2022-11-26T11:29:32.919Z,60.27
2022-11-26T11:32:04.491Z,60.20
2022-11-26T11:34:38.390Z,60.73
2022-11-26T11:37:19.215Z,63.83
2022-11-26T11:39:47.307Z,61.97
2022-11-26T11:42:23.801Z,61.20
2022-11-26T11:44:53.228Z,61.43
2022-11-26T11:47:37.305Z,62.70
2022-11-26T11:50:21.116Z,64.13
2022-11-26T11:52:57.582Z,63.30
2022-11-26T11:55:36.815Z,65.80
2022-11-26T11:58:30.906Z,62.77
2022-11-26T12:01:08.020Z,63.63
2022-11-26T12:03:59.496Z,64.27
2022-11-26T12:06:40.453Z,62.67
2022-11-26T12:09:18.319Z,64.43
2022-11-26T12:11:54.951Z,61.40
2022-11-26T12:14:27.382Z,60.73
2022-11-26T12:17:01.479Z,60.13
2022-11-26T12:19:39.422Z,59.30
2022-11-26T12:22:16.353Z,59.33
2022-11-26T12:24:51.252Z,59.97
2022-11-26T12:27:31.069Z,61.67
2022-11-26T12:30:02.906Z,62.40
2022-11-26T12:32:37.257Z,61.40
2022-11-26T12:35:12.236Z,63.30
2022-11-26T12:37:43.365Z,61.43
2022-11-26T12:40:24.787Z,63.53
2022-11-26T12:42:59.828Z,63.40
2022-11-26T12:45:41.569Z,65.80
2022-11-26T12:48:19.525Z,64.70
2022-11-26T12:50:52.834Z,65.50
2022-11-26T12:53:35.034Z,66.10
2022-11-26T12:56:15.333Z,66.90
2022-11-26T12:58:53.040Z,68.93
2022-11-26T13:01:21.219Z,67.60
2022-11-26T13:03:49.500Z,67.53
2022-11-26T13:06:30.427Z,69.10
2022-11-26T13:09:09.115Z,67.77
2022-11-26T13:11:44.338Z,69.17
2022-11-26T13:14:18.775Z,66.13
2022-11-26T13:16:55.392Z,68.07
2022-11-26T13:19:31.699Z,68.47
2022-11-26T13:22:14.542Z,70.53
2022-11-26T13:25:06.454Z,70.97
2022-11-26T13:27:50.713Z,72.13
2022-11-26T13:30:22.362Z,72.47
2022-11-26T13:33:27.744Z,72.13
2022-11-26T13:36:15.331Z,72.17
2022-11-26T13:38:53.721Z,71.90
2022-11-26T13:41:40.457Z,70.13
2022-11-26T13:44:38.824Z,72.27
2022-11-26T13:47:11.087Z,73.03
2022-11-26T13:49:44.355Z,74.07
2022-11-26T13:52:16.898Z,75.47
2022-11-26T13:54:50.143Z,72.50
2022-11-26T13:57:22.837Z,75.40
2022-11-26T13:59:52.601Z,74.47
2022-11-26T14:02:44.592Z,76.73
2022-11-26T14:05:15.580Z,75.30
2022-11-26T14:07:44.481Z,76.27
2022-11-26T14:10:41.542Z,78.03
2022-11-26T14:13:16.153Z,77.80
2022-11-26T14:15:59.002Z,79.67
2022-11-26T14:19:03.040Z,79.67
2022-11-26T14:21:31.618Z,78.97
2022-11-26T14:24:02.541Z,80.40
2022-11-26T14:26:34.504Z,78.90
2022-11-26T14:29:17.450Z,78.57
2022-11-26T14:31:51.808Z,82.67
2022-11-26T14:34:29.778Z,83.13
2022-11-26T14:36:59.343Z,83.50
2022-11-26T14:39:28.956Z,84.70
2022-11-26T14:42:05.326Z,85.23
2022-11-26T14:44:35.756Z,86.10
2022-11-26T14:47:12.203Z,84.13
2022-11-26T14:49:42.758Z,86.27
2022-11-26T14:52:19.979Z,87.80
2022-11-26T14:54:51.597Z,91.77
2022-11-26T14:57:24.641Z,105.17
2022-11-26T15:00:02.457Z,103.97
2022-11-26T15:02:32.321Z,114.13
2022-11-26T15:05:02.779Z,105.87
2022-11-26T15:07:32.409Z,100.47
2022-11-26T15:10:06.819Z,106.73
2022-11-26T15:12:37.389Z,92.50
2022-11-26T15:15:10.904Z,91.27
2022-11-26T15:17:44.152Z,87.87
2022-11-26T15:20:16.880Z,91.70
2022-11-26T15:22:51.030Z,88.87
2022-11-26T15:25:21.940Z,89.07
2022-11-26T15:27:55.263Z,87.30
2022-11-26T15:30:27.405Z,90.77
2022-11-26T15:33:00.899Z,89.77
2022-11-26T15:35:30.052Z,92.53
2022-11-26T15:37:58.498Z,92.73
2022-11-26T15:40:31.539Z,93.93
2022-11-26T15:43:03.254Z,90.57
2022-11-26T15:45:39.209Z,93.47
2022-11-26T15:48:27.199Z,87.47
2022-11-26T15:51:00.750Z,87.60
2022-11-26T15:53:33.636Z,89.50
2022-11-26T15:56:02.672Z,89.77
2022-11-26T15:58:34.939Z,93.57
2022-11-26T16:01:08.228Z,92.50
2022-11-26T16:03:43.157Z,95.97
2022-11-26T16:06:29.088Z,91.40
2022-11-26T16:09:00.666Z,95.40
2022-11-26T16:11:29.121Z,96.07
2022-11-26T16:13:57.016Z,94.00
2022-11-26T16:16:28.042Z,98.30
2022-11-26T16:18:59.378Z,97.47
2022-11-26T16:21:29.986Z,90.73
2022-11-26T16:24:00.572Z,93.20
2022-11-26T16:26:29.620Z,91.80
2022-11-26T16:28:57.518Z,93.03
2022-11-26T16:31:26.898Z,91.53
2022-11-26T16:33:54.874Z,89.83
2022-11-26T16:36:25.343Z,91.40
2022-11-26T16:38:54.029Z,91.60
2022-11-26T16:41:23.546Z,89.47
2022-11-26T16:43:51.629Z,90.87
2022-11-26T16:46:23.451Z,91.43
2022-11-26T16:48:53.531Z,93.80
2022-11-26T16:51:22.050Z,92.70
2022-11-26T16:53:50.640Z,93.53
2022-11-26T16:56:23.706Z,92.67
2022-11-26T16:58:52.537Z,92.37
2022-11-26T17:01:20.739Z,93.93
2022-11-26T17:03:48.708Z,91.20
2022-11-26T17:06:25.195Z,85.60
2022-11-26T17:08:54.683Z,84.83
2022-11-26T17:11:22.829Z,83.20
2022-11-26T17:13:51.178Z,85.23
2022-11-26T17:16:20.618Z,87.50
2022-11-26T17:18:49.372Z,87.13
2022-11-26T17:21:18.713Z,80.60
2022-11-26T17:23:46.737Z,69.87
2022-11-26T17:26:19.648Z,75.13
2022-11-26T17:28:48.184Z,67.57
2022-11-26T17:31:16.410Z,76.67
2022-11-26T17:33:44.650Z,66.63
2022-11-26T17:36:19.324Z,62.60
2022-11-26T17:38:47.858Z,60.37
2022-11-26T17:41:16.561Z,59.67
2022-11-26T17:43:44.876Z,55.17
2022-11-26T17:46:22.211Z,57.17
2022-11-26T17:48:55.558Z,57.20
2022-11-26T17:51:27.617Z,56.40
2022-11-26T17:53:55.540Z,54.67
2022-11-26T17:56:26.991Z,56.67
2022-11-26T17:58:55.873Z,55.60
2022-11-26T18:01:23.970Z,54.93
2022-11-26T18:03:52.603Z,53.87
2022-11-26T18:06:27.736Z,51.33
2022-11-26T18:08:57.025Z,54.53
2022-11-26T18:11:43.531Z,54.10
2022-11-26T18:14:11.812Z,54.20
2022-11-26T18:16:40.353Z,54.20
2022-11-26T18:19:10.584Z,49.83
2022-11-26T18:21:39.190Z,46.10
2022-11-26T18:24:09.736Z,43.57
2022-11-26T18:26:38.716Z,42.37
2022-11-26T18:29:07.231Z,41.10
2022-11-26T18:31:39.487Z,42.03
2022-11-26T18:34:08.847Z,43.17
2022-11-26T18:36:36.784Z,43.43
2022-11-26T18:39:05.197Z,42.13
2022-11-26T18:41:34.929Z,43.70
2022-11-26T18:44:04.114Z,42.30
2022-11-26T18:46:32.773Z,40.63
2022-11-26T18:49:00.859Z,41.30
2022-11-26T18:51:28.865Z,42.07
2022-11-26T18:53:56.767Z,41.07
2022-11-26T18:56:26.021Z,40.67
2022-11-26T18:58:55.292Z,40.17
2022-11-26T19:01:25.394Z,39.90
2022-11-26T19:03:53.721Z,40.20
2022-11-26T19:06:24.270Z,39.77
2022-11-26T19:08:57.606Z,39.93
2022-11-26T19:11:26.590Z,41.63
2022-11-26T19:13:56.952Z,42.90
2022-11-26T19:16:26.104Z,43.13
2022-11-26T19:18:54.793Z,44.17
2022-11-26T19:21:25.230Z,46.60
2022-11-26T19:23:54.429Z,46.83
2022-11-26T19:26:22.672Z,46.37
2022-11-26T19:28:51.210Z,46.10
2022-11-26T19:31:21.715Z,45.33
2022-11-26T19:33:54.701Z,44.87
2022-11-26T19:36:23.395Z,45.27
2022-11-26T19:38:56.103Z,43.93
2022-11-26T19:41:26.054Z,46.77
2022-11-26T19:43:54.515Z,45.17
2022-11-26T19:46:25.993Z,45.77
2022-11-26T19:48:55.651Z,45.87
2022-11-26T19:51:25.277Z,46.73
2022-11-26T19:53:55.940Z,45.63
2022-11-26T19:56:25.774Z,46.20
2022-11-26T19:58:54.926Z,46.17
2022-11-26T20:01:25.957Z,46.00
2022-11-26T20:03:54.004Z,48.03
2022-11-26T20:06:23.656Z,46.80
2022-11-26T20:08:51.552Z,49.47
2022-11-26T20:11:19.835Z,49.03
2022-11-26T20:13:50.195Z,49.43
2022-11-26T20:16:20.441Z,49.50
2022-11-26T20:18:50.509Z,48.63
2022-11-26T20:21:20.850Z,50.70
2022-11-26T20:23:50.118Z,51.50
2022-11-26T20:26:19.826Z,50.23
2022-11-26T20:28:47.809Z,51.00
2022-11-26T20:31:21.894Z,51.37
2022-11-26T20:33:53.014Z,51.23
2022-11-26T20:36:23.076Z,51.97
2022-11-26T20:38:53.636Z,54.70
2022-11-26T20:41:21.808Z,49.30
2022-11-26T20:43:54.881Z,48.87
2022-11-26T20:46:24.886Z,46.43
2022-11-26T20:48:55.688Z,46.03
2022-11-26T20:51:24.157Z,44.80
2022-11-26T20:53:52.983Z,44.67
2022-11-26T20:56:22.483Z,45.13
2022-11-26T20:58:52.579Z,45.43
2022-11-26T21:01:22.937Z,43.30
2022-11-26T21:03:51.240Z,42.87
2022-11-26T21:06:28.972Z,41.30
2022-11-26T21:08:58.112Z,39.40
2022-11-26T21:11:26.094Z,40.30
2022-11-26T21:13:53.985Z,38.63
2022-11-26T21:16:23.356Z,37.70
2022-11-26T21:18:54.204Z,37.70
2022-11-26T21:21:24.764Z,37.80
2022-11-26T21:23:52.700Z,38.50
2022-11-26T21:26:22.720Z,37.03
2022-11-26T21:28:52.584Z,36.03
2022-11-26T21:31:22.002Z,35.80
2022-11-26T21:33:56.168Z,34.87
2022-11-26T21:36:26.706Z,35.77
2022-11-26T21:38:55.144Z,36.70
2022-11-26T21:41:24.144Z,36.83
2022-11-26T21:43:52.887Z,38.20
2022-11-26T21:46:22.810Z,36.70
2022-11-26T21:48:52.653Z,36.07
2022-11-26T21:51:21.496Z,36.30
2022-11-26T21:53:51.362Z,37.57
2022-11-26T21:56:20.946Z,36.10
2022-11-26T21:58:49.431Z,35.40
2022-11-26T22:01:20.081Z,34.50
2022-11-26T22:03:50.932Z,32.67
2022-11-26T22:06:20.957Z,32.10
2022-11-26T22:08:50.705Z,33.00
2022-11-26T22:11:20.282Z,33.80
2022-11-26T22:13:48.901Z,32.60
2022-11-26T22:16:19.171Z,29.73
2022-11-26T22:18:47.698Z,30.93
2022-11-26T22:21:18.044Z,32.30
2022-11-26T22:23:46.318Z,31.07
2022-11-26T22:26:15.981Z,31.43
2022-11-26T22:28:43.986Z,31.73
2022-11-26T22:31:13.478Z,31.70
2022-11-26T22:33:42.122Z,31.17
2022-11-26T22:36:10.732Z,30.53
2022-11-26T22:38:39.880Z,29.60
2022-11-26T22:41:09.355Z,28.33
2022-11-26T22:43:38.931Z,28.43
2022-11-26T22:46:07.863Z,28.93
2022-11-26T22:48:36.421Z,28.87
2022-11-26T22:51:05.211Z,27.10
2022-11-26T22:53:34.431Z,26.77
2022-11-26T22:56:04.015Z,25.57
2022-11-26T22:58:33.681Z,26.30
2022-11-26T23:01:05.405Z,26.57
2022-11-26T23:03:36.185Z,25.93
2022-11-26T23:06:06.024Z,23.20
2022-11-26T23:08:34.437Z,23.10
2022-11-26T23:11:16.909Z,23.27
2022-11-26T23:13:47.120Z,21.57
2022-11-26T23:16:17.699Z,23.63
2022-11-26T23:18:45.868Z,21.50
2022-11-26T23:21:15.988Z,20.93
2022-11-26T23:23:44.407Z,20.43
2022-11-26T23:26:15.081Z,21.07
2022-11-26T23:28:43.052Z,19.70
2022-11-26T23:31:15.053Z,20.03
2022-11-26T23:33:44.487Z,20.53
2022-11-26T23:36:13.010Z,19.77
2022-11-26T23:38:41.321Z,19.27
2022-11-26T23:41:09.884Z,19.63
2022-11-26T23:43:39.215Z,19.87
2022-11-26T23:46:08.921Z,21.30
2022-11-26T23:48:37.341Z,19.60
2022-11-26T23:51:09.729Z,19.40
2022-11-26T23:53:38.280Z,19.10
2022-11-26T23:56:08.606Z,18.47
2022-11-26T23:58:36.555Z,18.07
